Tiempo atmosférico en la estación meteorológica de Alcañiz, Teruel (320 m.)



Fecha
DESCASC
Temp. máxima en grados centígrados (hora)
DESCASC
Temp. mínima en grados centígrados (hora)
DESCASC
Temp. media en grados centígrados
DESCASC
Racha de viento máxima en m/sg (hora)
DESCASC
Velocidad máxima media en intervalos de 10 minutos(hora)
DESCASC
Precipitaciones diarias en mm
DESCASC
Precipitaciones de 00:00 a 06:00 en mm
DESCASC
Precipitaciones de 06:00 a 12:00 en mm
DESCASC
Precipitaciones de 12:00 a 18:00 en mm
DESCASC
Precipitaciones de 18:00 a 24:00 en mm
DESCASC
17-09-2020 30.7 (16:30) 16.9 (05:50) 23.8 8.06 (17:40) 3.89 (16:50) 0 0 0 0 0
15-09-2020 32.1 (16:50) 17.4 (08:50) 24.7 8.33 (17:10) 3.89 (17:10) 0 0 0 0 0
14-09-2020 33.1 (16:40) 13.1 (07:30) 23.1 9.17 (15:30) 5 (15:30) 0 0 0 0 0
13-09-2020 32.9 (16:00) 13.5 (00:00) 23.2 8.61 (18:30) 5 (18:40) 0 0 0 0 0
12-09-2020 30.7 (16:50) 13.4 (04:20) 22.1 5.28 (17:40) 2.78 (17:10) 0 0 0 0 0
11-09-2020 30.4 (17:50) 13.5 (00:00) 21.9 6.11 (11:50) 2.78 (11:40) 0 0 0 0 0
10-09-2020 29.9 (18:30) 13.7 (00:00) 21.8 6.39 (11:30) 3.33 (12:10) 0.1 0.1 0 0 0
09-09-2020 27 (16:00) 14.1 (05:50) 20.6 5.56 (16:00) 3.06 (22:00) 0.1 0 0 0 0.1
08-09-2020 25.8 (16:00) 10 (00:00) 17.9 5.83 (10:00) 3.06 (10:00) 0 0 0 0 0
07-09-2020 25.9 (16:50) 13.7 (07:30) 19.8 13.61 (03:50) 6.94 (03:50) 0 0 0 0 0
06-09-2020 26.7 (15:50) 14.9 (00:00) 20.8 10.28 (21:30) 5.56 (21:40) 0.5 0 0 0 0.5
05-09-2020 31.8 (17:00) 12.4 (00:00) 22.1 6.67 (22:00) 3.61 (22:00) 0 0 0 0 0
04-09-2020 31.7 (16:50) 12.2 (00:00) 22 7.78 (16:40) 4.72 (19:10) 0 0 0 0 0
03-09-2020 30.9 (17:10) 9.3 (00:00) 20.1 6.67 (17:30) 3.61 (20:20) 0 0 0 0 0
02-09-2020 27.3 (18:10) 11 (00:00) 19.1 8.89 (13:40) 4.17 (10:20) 0 0 0 0 0
01-09-2020 25.4 (15:30) 11.1 (00:00) 18.3 4.72 (18:00) 2.5 (17:00) 0 0 0 0 0
31-08-2020 26.7 (17:40) 10 (00:00) 18.4 7.5 (11:30) 3.61 (09:40) 0 0 0 0 0
30-08-2020 23.2 (15:50) 11.9 (00:00) 17.6 13.06 (02:30) 6.39 (02:20) 0 0 0 0 0
29-08-2020 24.5 (15:30) 16 (00:00) 20.3 13.33 (19:30) 6.94 (18:50) 0 0 0 0 0
28-08-2020 31.1 (15:40) 17.7 (00:00) 24.4 10.56 (20:30) 5.28 (20:20) 0.2 0 0 0.1 0.1
27-08-2020 35.7 (17:20) 18.3 (00:00) 27 5 (18:20) 2.78 (18:20) 0 0 0 0 0
26-08-2020 35.8 (18:30) 17 (00:00) 26.4 5 (15:10) 2.5 (03:00) 0 0 0 0 0
25-08-2020 35.1 (18:40) 16.8 (00:00) 25.9 6.67 (16:10) 3.61 (17:30) 0 0 0 0 0
24-08-2020 31.4 (18:10) 12.9 (07:30) 22.1 6.94 (09:40) 3.61 (09:40) 0 0 0 0 0
23-08-2020 30.9 (17:20) 17.8 (00:00) 24.3 7.78 (09:10) 3.89 (23:00) 0 0 0 0 0
22-08-2020 32.7 (18:30) 19.3 (00:00) 26 10.83 (00:20) 5.28 (00:20) 0 0 0 0 0
21-08-2020 37.2 (17:50) 16.8 (07:10) 27 8.06 (19:40) 5 (19:50) 0 0 0 0 0
20-08-2020 37.5 (15:20) 17.3 (00:00) 27.4 10.56 (18:10) 4.72 (18:10) 0 0 0 0 0
19-08-2020 35.2 (16:30) 16.9 (00:00) 26.1 10 (18:20) 5.56 (18:40) 0 0 0 0 0

Gráficas

Temp. máximas Temp. mínimas Temp. medias Precipitaciones Rachas de viento máximas Velocidades máximas media en intervalos de 10 minutos

Datos horarios

Fecha y hora oficial Temperatura (ºC) Velocidad del viento (km/h) Dirección del viento Racha (km/h) Dirección de racha Precipitación (mm) Presión (hPa) Tendencia (hPa) Humedad (%)
2020-09-17 23:00:00 22.7 0 Calma 12 Sudeste 0 -- -- 52
2020-09-17 22:00:00 23.9 4 Sur 14 Sudeste 0 -- -- 49
2020-09-17 21:00:00 25.5 4 Sudeste 16 Sur 0 -- -- 46
2020-09-17 20:00:00 27.3 6 Sudeste 21 Sur 0 -- -- 41
2020-09-17 19:00:00 28.4 9 Sudeste 22 Sur 0 -- -- 36
2020-09-17 18:00:00 28.6 13 Sur 29 Sur 0 -- -- 34
2020-09-17 17:00:00 29.5 12 Sur 27 Sur 0 -- -- 35
2020-09-17 16:00:00 29.5 6 Sudeste 19 Sur 0 -- -- 39
2020-09-17 15:00:00 27.9 12 Nordeste 19 Nordeste 0 -- -- 47
2020-09-17 14:00:00 24.6 5 Nordeste 10 Nordeste 0 -- -- 57
2020-09-17 13:00:00 21.9 4 Este 9 Este 0 -- -- 69
2020-09-17 12:00:00 21.4 0 Calma 13 Sudoeste 0 -- -- 75
2020-09-17 11:00:00 20.7 0 Calma 2 Norte 0 -- -- 73
2020-09-17 10:00:00 19.5 0 Calma 2 Noroeste 0 -- -- 78
2020-09-17 09:00:00 18.4 5 Sudoeste 8 Sudoeste 0 -- -- 79
2020-09-17 08:00:00 17.3 0 Calma -- -- 0 -- -- 84
2020-09-17 07:00:00 17.3 0 Calma -- -- 0 -- -- 83
2020-09-17 06:00:00 17.1 0 Calma -- -- 0 -- -- 84
2020-09-17 05:00:00 17.3 0 Calma 6 Este 0 -- -- 83
2020-09-17 04:00:00 18.4 0 Calma 4 Este 0 -- -- 80
2020-09-17 03:00:00 19 0 Calma 5 Nordeste 0 -- -- 73
2020-09-17 02:00:00 21.1 3 Nordeste 6 Nordeste 0 -- -- 63
2020-09-17 01:00:00 22.5 2 Este 5 Este 0 -- -- 57
2020-09-17 00:00:00 23.4 0 Calma 9 Sudeste 0 -- -- 56
2020-09-16 23:00:00 24.6 3 Sudeste 9 Sudeste 0 -- -- 56
2020-09-16 22:00:00 24.6 0 Calma 10 Sudoeste 0 -- -- 58
2020-09-16 21:00:00 26.5 5 Sudeste 10 Sudeste 0 -- -- 54
2020-09-16 20:00:00 28.2 5 Sudeste 19 Este 0 -- -- 49
2020-09-16 19:00:00 29.7 10 Este 21 Este 0 -- -- 41
2020-09-16 18:00:00 31.8 5 Nordeste 13 Este 0 -- -- 34
2020-09-16 17:00:00 31.1 7 Este 15 Este 0 -- -- 35
2020-09-16 16:00:00 31.7 6 Nordeste 16 Nordeste 0 -- -- 36
2020-09-16 15:00:00 31.1 6 Este 16 Nordeste 0 -- -- 39
2020-09-16 14:00:00 30.7 0 Calma 13 Oeste 0 -- -- 44
2020-09-16 13:00:00 28.9 4 Este 10 Norte 0 -- -- 46
2020-09-16 12:00:00 27.3 4 Este 9 Oeste 0 -- -- 50
2020-09-16 11:00:00 24 2 Oeste 8 Sudoeste 0 -- -- 60
2020-09-16 10:00:00 20.3 3 Oeste 8 Sudoeste 0 -- -- 70
2020-09-16 09:00:00 18.4 0 Calma -- -- 0 -- -- 78
2020-09-16 08:00:00 15.9 0 Calma 4 Oeste 0 -- -- 85
2020-09-16 07:00:00 16.8 0 Calma 5 Sudoeste 0 -- -- 82
2020-09-16 06:00:00 17.6 3 Noroeste 10 Sudoeste 0 -- -- 77
2020-09-16 05:00:00 17.5 6 Oeste 10 Oeste 0 -- -- 77
2020-09-16 04:00:00 17.8 0 Calma -- -- 0 -- -- 78
2020-09-16 03:00:00 18.1 0 Calma -- -- 0 -- -- 74
2020-09-16 02:00:00 19.9 0 Calma 5 Norte 0 -- -- 68
2020-09-16 01:00:00 20.9 0 Calma 6 Sur 0 -- -- 64
2020-09-16 00:00:00 21.7 0 Calma 9 Sudeste 0 -- -- 61
2020-09-15 23:00:00 23.7 0 Calma 9 Sur 0 -- -- 57
2020-09-15 22:00:00 24.7 4 Sur 16 Sur 0 -- -- 54
2020-09-15 21:00:00 26 6 Sur 23 Sur 0 -- -- 51
2020-09-15 20:00:00 26.6 3 Oeste 22 Sudoeste 0 -- -- 48
2020-09-15 19:00:00 28.2 12 Sur 23 Sur 0 -- -- 44
2020-09-15 18:00:00 29.8 8 Sudeste 30 Sur 0 -- -- 41
2020-09-15 17:00:00 30.3 8 Sudeste 23 Este 0 -- -- 39
2020-09-15 16:00:00 30.9 9 Nordeste 22 Nordeste 0 -- -- 37
2020-09-15 15:00:00 31.2 7 Este 16 Este 0 -- -- 39
2020-09-15 14:00:00 29.5 0 Calma 14 Este 0 -- -- 40
2020-09-15 13:00:00 28.6 4 Nordeste 14 Oeste 0 -- -- 43
2020-09-15 12:00:00 26.9 6 Oeste 12 Oeste 0 -- -- 49
2020-09-15 11:00:00 25.1 5 Sudoeste 13 Oeste 0 -- -- 55
2020-09-15 10:00:00 21.4 5 Oeste 12 Oeste 0 -- -- 68
2020-09-15 09:00:00 17.8 2 Sudoeste 6 Oeste 0 -- -- 75
2020-09-15 08:00:00 18.3 4 Oeste 6 Sudoeste 0 -- -- 72
2020-09-15 07:00:00 19.9 2 Norte 7 Sudoeste 0 -- -- 63
2020-09-15 06:00:00 21.2 0 Calma 18 Oeste 0 -- -- 56
2020-09-15 05:00:00 21.1 5 Nordeste 9 Nordeste 0 -- -- 56
2020-09-15 04:00:00 20.8 0 Calma 6 Nordeste 0 -- -- 56
2020-09-15 03:00:00 20.4 0 Calma 5 Nordeste 0 -- -- 56
2020-09-15 02:00:00 21 0 Calma 5 Este 0 -- -- 55
2020-09-15 01:00:00 21.8 0 Calma 8 Sur 0 -- -- 53
2020-09-15 00:00:00 23.2 3 Nordeste 19 Sudeste 0 -- -- 48
2020-09-14 23:00:00 23.5 2 Sur 10 Sur 0 -- -- 48
2020-09-14 22:00:00 23.3 3 Este 8 Este 0 -- -- 49
2020-09-14 21:00:00 24.5 4 Este 19 Este 0 -- -- 46
2020-09-14 20:00:00 26.2 11 Este 22 Este 0 -- -- 44
2020-09-14 19:00:00 28.5 10 Sudeste 26 Sudeste 0 -- -- 40
2020-09-14 18:00:00 31 13 Sur 29 Este 0 -- -- 34
2020-09-14 17:00:00 31.5 10 Este 33 Sudeste 0 -- -- 34
2020-09-14 16:00:00 31.8 7 Sudeste 33 Este 0 -- -- 31
2020-09-14 15:00:00 30.6 11 Nordeste 26 Nordeste 0 -- -- 37
2020-09-14 14:00:00 30.8 8 Nordeste 18 Nordeste 0 -- -- 36
2020-09-14 13:00:00 29.4 8 Nordeste 16 Nordeste 0 -- -- 38
2020-09-14 12:00:00 27.8 7 Nordeste 14 Este 0 -- -- 42
2020-09-14 11:00:00 25.2 2 Nordeste 6 Oeste 0 -- -- 48
2020-09-14 10:00:00 22.3 0 Calma 5 Sudoeste 0 -- -- 58
2020-09-14 09:00:00 17 0 Calma 4 Oeste 0 -- -- 71
2020-09-14 08:00:00 13.7 0 Calma -- -- 0 -- -- 80
2020-09-14 07:00:00 13.5 0 Calma 7 Oeste 0 -- -- 80
2020-09-14 06:00:00 13.8 0 Calma 2 Sur 0 -- -- 77
2020-09-14 05:00:00 14.7 0 Calma 3 Oeste 0 -- -- 75
2020-09-14 04:00:00 15.9 0 Calma 7 Este 0 -- -- 68
2020-09-14 03:00:00 17.5 3 Este 7 Este 0 -- -- 61
2020-09-14 02:00:00 18.3 3 Norte 6 Este 0 -- -- 58
2020-09-14 01:00:00 19.8 3 Este 8 Sudeste 0 -- -- 55
2020-09-14 00:00:00 21.8 0 Calma 5 Este 0 -- -- 50
2020-09-13 23:00:00 23.1 3 Este 6 Sur 0 -- -- 46
2020-09-13 22:00:00 23.6 0 Calma 9 Sudeste 0 -- -- 43
2020-09-13 21:00:00 26.1 4 Sudeste 19 Sur 0 -- -- 39
2020-09-13 20:00:00 28.2 7 Sudeste 24 Sudeste 0 -- -- 35
2020-09-13 19:00:00 30 15 Este 31 Este 0 -- -- 33
2020-09-13 18:00:00 31.4 15 Este 28 Nordeste 0 -- -- 31
2020-09-13 17:00:00 32.2 11 Nordeste 26 Este 0 -- -- 28
2020-09-13 16:00:00 32.4 5 Nordeste 24 Este 0 -- -- 28
2020-09-13 15:00:00 31.7 8 Nordeste 21 Nordeste 0 -- -- 32
2020-09-13 14:00:00 30 10 Nordeste 20 Este 0 -- -- 35
2020-09-13 13:00:00 29.2 5 Nordeste 14 Este 0 -- -- 37
2020-09-13 12:00:00 27.4 4 Este 9 Nordeste 0 -- -- 39
2020-09-13 11:00:00 23.4 0 Calma 6 Sudoeste 0 -- -- 47
2020-09-13 10:00:00 -- 0 Calma 5 Sudoeste 0 -- -- --
2020-09-13 09:00:00 16.7 2 Sudoeste 6 Oeste 0 -- -- 71
2020-09-13 08:00:00 13.9 4 Oeste 6 Oeste 0 -- -- 82
2020-09-13 07:00:00 13.8 0 Calma -- -- 0 -- -- 79
2020-09-13 06:00:00 15.4 0 Calma -- -- 0 -- -- 78
2020-09-13 05:00:00 16.2 0 Calma 6 Sudoeste 0 -- -- 75
2020-09-13 04:00:00 16.6 0 Calma 6 Sudeste 0 -- -- 73
2020-09-13 03:00:00 17.9 0 Calma 6 Norte 0 -- -- 65
2020-09-13 02:00:00 19.6 0 Calma 7 Oeste 0 -- -- 60
2020-09-13 01:00:00 20.4 5 Oeste 7 Oeste 0 -- -- 60
2020-09-13 00:00:00 21.2 0 Calma 13 Oeste 0 -- -- 57
2020-09-12 23:00:00 22.7 4 Sudoeste 10 Sudoeste 0 -- -- 53
2020-09-12 22:00:00 23.9 4 Sudoeste 9 Sur 0 -- -- 48
2020-09-12 21:00:00 26.2 5 Sudeste 16 Sudoeste 0 -- -- 43
2020-09-12 20:00:00 27.7 5 Este 13 Norte 0 -- -- 36
2020-09-12 19:00:00 29.6 7 Nordeste 17 Norte 0 -- -- 32
2020-09-12 18:00:00 30.2 7 Nordeste 19 Este 0 -- -- 34
2020-09-12 17:00:00 30.2 7 Este 19 Este 0 -- -- 34
2020-09-12 16:00:00 30 4 Este 17 Nordeste 0 -- -- 37
2020-09-12 15:00:00 29.5 4 Norte 14 Oeste 0 -- -- 39
2020-09-12 14:00:00 28.1 4 Este 15 Nordeste 0 -- -- 42
2020-09-12 13:00:00 26.9 4 Sudoeste 12 Sudoeste 0 -- -- 47
2020-09-12 12:00:00 24.2 5 Sudoeste 17 Noroeste 0 -- -- 55
2020-09-12 11:00:00 22.3 8 Oeste 18 Norte 0 -- -- 59
2020-09-12 10:00:00 20.4 4 Sur 8 Sur 0 -- -- 59
2020-09-12 09:00:00 16.5 3 Sudoeste 7 Sudoeste 0 -- -- 70
2020-09-12 08:00:00 14 0 Calma 7 Sudoeste 0 -- -- 77
2020-09-12 07:00:00 14.2 2 Sudoeste 9 Sudoeste 0 -- -- 75
2020-09-12 06:00:00 14.4 3 Sudoeste 8 Sudoeste 0 -- -- 75
2020-09-12 05:00:00 14.1 2 Oeste 5 Sudoeste 0 -- -- 76
2020-09-12 04:00:00 14 0 Calma 8 Sudoeste 0 -- -- 76
2020-09-12 03:00:00 15.1 5 Oeste 15 Oeste 0 -- -- 71
2020-09-12 02:00:00 15.9 0 Calma -- -- 0 -- -- 66
2020-09-12 01:00:00 17.2 0 Calma -- -- 0 -- -- 60
2020-09-12 00:00:00 17.5 0 Calma 6 Oeste 0 -- -- 53
2020-09-11 23:00:00 18.8 3 Oeste 6 Oeste 0 -- -- 49
2020-09-11 22:00:00 20.4 3 Sudoeste 7 Sudoeste 0 -- -- 44
2020-09-11 21:00:00 22.6 0 Calma 3 Este 0 -- -- 38
2020-09-11 20:00:00 26.7 3 Este 14 Este 0 -- -- 32
2020-09-11 19:00:00 29.3 2 Norte 13 Norte 0 -- -- 30
2020-09-11 18:00:00 29.5 4 Nordeste 17 Nordeste 0 -- -- 31
2020-09-11 17:00:00 29.3 5 Nordeste 16 Noroeste 0 -- -- 32
2020-09-11 16:00:00 29.5 2 Noroeste 14 Noroeste 0 -- -- 34
2020-09-11 15:00:00 27.8 3 Noroeste 15 Sudoeste 0 -- -- 36
2020-09-11 14:00:00 27 7 Sudoeste 21 Sudoeste 0 -- -- 39
2020-09-11 13:00:00 26 9 Sudoeste 20 Oeste 0 -- -- 43
2020-09-11 12:00:00 23.1 7 Noroeste 22 Oeste 0 -- -- 48
2020-09-11 11:00:00 22.2 7 Oeste 21 Sudoeste 0 -- -- 54
2020-09-11 10:00:00 20.6 10 Oeste 18 Oeste 0 -- -- 59
2020-09-11 09:00:00 16.4 5 Sudoeste 8 Sudoeste 0 -- -- 67
2020-09-11 08:00:00 14 2 Sudoeste 7 Sudoeste 0 -- -- 74
2020-09-11 07:00:00 14.6 3 Sudoeste 7 Sudoeste 0 -- -- 70
2020-09-11 06:00:00 14.2 3 Sudoeste 11 Oeste 0 -- -- 71
2020-09-11 05:00:00 15.3 3 Oeste 6 Sudoeste 0 -- -- 65
2020-09-11 04:00:00 14.8 3 Sudoeste 6 Sudoeste 0 -- -- 62
2020-09-11 03:00:00 16.7 3 Oeste 12 Sudoeste 0 -- -- 54
2020-09-11 02:00:00 18 5 Sudoeste 9 Oeste 0 -- -- 49
2020-09-11 01:00:00 19 2 Noroeste 8 Sudoeste 0 -- -- 45
2020-09-11 00:00:00 20.4 5 Sudoeste 9 Oeste 0 -- -- 42
2020-09-10 23:00:00 22 0 Calma 13 Oeste 0 -- -- 38
2020-09-10 22:00:00 24.9 8 Oeste 15 Noroeste 0 -- -- 34
2020-09-10 21:00:00 24.8 0 Calma 6 Noroeste 0 -- -- 36
2020-09-10 20:00:00 27.4 4 Noroeste 10 Oeste 0 -- -- 30
2020-09-10 19:00:00 29 5 Noroeste 15 Norte 0 -- -- 28
2020-09-10 18:00:00 28.4 9 Norte 22 Noroeste 0 -- -- 29
2020-09-10 17:00:00 28.9 8 Noroeste 18 Norte 0 -- -- 29
2020-09-10 16:00:00 28 5 Noroeste 18 Norte 0 -- -- 31
2020-09-10 15:00:00 26.9 7 Noroeste 21 Oeste 0 -- -- 35
2020-09-10 14:00:00 26.5 8 Oeste 23 Oeste 0 -- -- 37
2020-09-10 13:00:00 24.3 6 Oeste 21 Sudoeste 0 -- -- 41
2020-09-10 12:00:00 22.5 10 Noroeste 23 Oeste 0 -- -- 43
2020-09-10 11:00:00 21.7 8 Oeste 19 Oeste 0 -- -- 47
2020-09-10 10:00:00 19.1 4 Sudoeste 12 Sudoeste 0 -- -- 70
2020-09-10 09:00:00 15.2 4 Sur 9 Sudoeste 0 -- -- 93
2020-09-10 08:00:00 14.2 0 Calma 6 Sudoeste 0 -- -- 96
2020-09-10 07:00:00 13.9 0 Calma 6 Sudoeste 0 -- -- 96
2020-09-10 06:00:00 14.4 0 Calma 10 Oeste 0 -- -- 96
2020-09-10 05:00:00 14.7 0 Calma 5 Sur 0 -- -- 96
2020-09-10 04:00:00 15.7 0 Calma 5 Sudoeste 0 -- -- 96
2020-09-10 03:00:00 16.9 4 Oeste 7 Sudoeste 0 -- -- 95
2020-09-10 02:00:00 17.7 3 Sur 9 Sudoeste 0 -- -- 91
2020-09-10 01:00:00 18 0 Calma 7 Sudoeste 0.1 -- -- 91
2020-09-10 00:00:00 19.3 4 Sudoeste 7 Sudoeste 0.1 -- -- 80
2020-09-09 23:00:00 20.4 3 Nordeste 19 Nordeste 0 -- -- 71
2020-09-09 22:00:00 20.7 11 Nordeste 18 Nordeste 0 -- -- 65
2020-09-09 21:00:00 21.6 4 Este 12 Este 0 -- -- 60
2020-09-09 20:00:00 23.1 2 Sur 9 Sudeste 0 -- -- 56
2020-09-09 19:00:00 23.5 4 Sudeste 15 Este 0 -- -- 55
2020-09-09 18:00:00 25.5 0 Calma 14 Nordeste 0 -- -- 47
2020-09-09 17:00:00 25.5 6 Norte 17 Norte 0 -- -- 46
2020-09-09 16:00:00 26 6 Nordeste 20 Norte 0 -- -- 46
2020-09-09 15:00:00 24.7 4 Sur 15 Sur 0 -- -- 50
2020-09-09 14:00:00 24.3 0 Calma 12 Noroeste 0 -- -- 52
2020-09-09 13:00:00 23.8 6 Sudoeste 17 Oeste 0 -- -- 54
2020-09-09 12:00:00 22.6 6 Sur 13 Sur 0 -- -- 59
2020-09-09 11:00:00 18.3 5 Sur 10 Sur 0 -- -- 77
2020-09-09 10:00:00 15.9 5 Sur 10 Sudoeste 0 -- -- 86
2020-09-09 09:00:00 15.7 4 Sudoeste 9 Sudoeste 0 -- -- 81
2020-09-09 08:00:00 15.4 2 Sudoeste 9 Sur 0 -- -- 78
2020-09-09 07:00:00 14.8 4 Oeste 7 Oeste 0 -- -- 79
2020-09-09 06:00:00 14.2 2 Sudeste 6 Oeste 0 -- -- 77
2020-09-09 05:00:00 14.8 4 Oeste 6 Sudoeste 0 -- -- 76
2020-09-09 04:00:00 16 0 Calma 4 Nordeste 0 -- -- 70
2020-09-09 03:00:00 17.6 0 Calma 11 Nordeste 0 -- -- 66
2020-09-09 02:00:00 18.6 2 Oeste 10 Oeste 0 -- -- 63
2020-09-09 01:00:00 18.7 2 Oeste 9 Oeste 0 -- -- 60
2020-09-09 00:00:00 19.5 2 Este 7 Este 0 -- -- 57
2020-09-08 23:00:00 19.8 0 Calma 9 Sudeste 0 -- -- 55
2020-09-08 22:00:00 20.2 5 Este 15 Este 0 -- -- 50
2020-09-08 21:00:00 21.8 8 Nordeste 12 Nordeste 0 -- -- 44
2020-09-08 20:00:00 23.3 5 Nordeste 8 Nordeste 0 -- -- 40
2020-09-08 19:00:00 23.8 3 Nordeste 16 Nordeste 0 -- -- 39
2020-09-08 18:00:00 25 3 Nordeste 18 Nordeste 0 -- -- 37
2020-09-08 17:00:00 25.1 6 Nordeste 18 Este 0 -- -- 37
2020-09-08 16:00:00 24.8 4 Norte 15 Sudoeste 0 -- -- 38
2020-09-08 15:00:00 24.1 3 Noroeste 17 Oeste 0 -- -- 41
2020-09-08 14:00:00 23 2 Noroeste 14 Oeste 0 -- -- 43
2020-09-08 13:00:00 21.7 6 Noroeste 18 Oeste 0 -- -- 49
2020-09-08 12:00:00 19.7 4 Sudoeste 18 Oeste 0 -- -- 56
2020-09-08 11:00:00 17.7 8 Noroeste 18 Oeste 0 -- -- 62
2020-09-08 10:00:00 16.5 11 Oeste 21 Oeste 0 -- -- 67
2020-09-08 09:00:00 12.1 4 Sudoeste 10 Sudoeste 0 -- -- 81
2020-09-08 08:00:00 10.2 3 Sur 6 Sudoeste 0 -- -- 85
2020-09-08 07:00:00 10.9 5 Sudoeste 8 Sudoeste 0 -- -- 83
2020-09-08 06:00:00 11.2 0 Calma 12 Oeste 0 -- -- 80
2020-09-08 05:00:00 10.6 0 Calma 5 Oeste 0 -- -- 79
2020-09-08 04:00:00 12.7 4 Sudoeste 12 Sudoeste 0 -- -- 71
2020-09-08 03:00:00 13.8 8 Sudoeste 15 Sur 0 -- -- 65
2020-09-08 02:00:00 14.6 8 Sudoeste 14 Sudoeste 0 -- -- 62
2020-09-08 01:00:00 15 6 Sudoeste 13 Sudoeste 0 -- -- 60
2020-09-08 00:00:00 16.1 2 Sudoeste 15 Oeste 0 -- -- 56
2020-09-07 23:00:00 17.2 8 Oeste 17 Oeste 0 -- -- 52
2020-09-07 22:00:00 19.1 13 Oeste 26 Oeste 0 -- -- 46
2020-09-07 21:00:00 20 12 Oeste 26 Oeste 0 -- -- 42
2020-09-07 20:00:00 22.1 12 Oeste 27 Oeste 0 -- -- 38
2020-09-07 19:00:00 23.5 11 Oeste 28 Sudoeste 0 -- -- 38
2020-09-07 18:00:00 24.2 15 Oeste 29 Oeste 0 -- -- 39
2020-09-07 17:00:00 24.2 10 Oeste 29 Noroeste 0 -- -- 39
2020-09-07 16:00:00 23.7 10 Norte 22 Oeste 0 -- -- 41
2020-09-07 15:00:00 23 8 Noroeste 22 Noroeste 0 -- -- 42
2020-09-07 14:00:00 22.2 11 Oeste 38 Oeste 0 -- -- 46
2020-09-07 13:00:00 21.1 13 Oeste 28 Oeste 0 -- -- 50
2020-09-07 12:00:00 18.8 14 Noroeste 32 Oeste 0 -- -- 54
2020-09-07 11:00:00 18.1 15 Oeste 36 Oeste 0 -- -- 56
2020-09-07 10:00:00 17 14 Oeste 34 Sudoeste 0 -- -- 60
2020-09-07 09:00:00 15.3 15 Oeste 28 Oeste 0 -- -- 65
2020-09-07 08:00:00 14.2 9 Sudoeste 29 Sudoeste 0 -- -- 68
2020-09-07 07:00:00 14.2 7 Sudoeste 22 Oeste 0 -- -- 67
2020-09-07 06:00:00 14.8 9 Sudoeste 32 Sudoeste 0 -- -- 64
2020-09-07 05:00:00 15.5 14 Oeste 36 Oeste 0 -- -- 64
2020-09-07 04:00:00 16.3 21 Oeste 49 Oeste 0 -- -- 63
2020-09-07 03:00:00 16.8 14 Oeste 35 Oeste 0 -- -- 62
2020-09-07 02:00:00 16.7 14 Oeste 27 Oeste 0 -- -- 64
2020-09-07 01:00:00 16.6 10 Sudoeste 33 Oeste 0 -- -- 67
2020-09-07 00:00:00 17.1 11 Oeste 29 Oeste 0 -- -- 67
2020-09-06 23:00:00 17.9 13 Oeste 36 Noroeste 0.2 -- -- 64
2020-09-06 22:00:00 17.8 11 Oeste 37 Oeste 0.3 -- -- 70
2020-09-06 21:00:00 21.2 17 Oeste 32 Oeste 0 -- -- 48
2020-09-06 20:00:00 22.5 13 Noroeste 30 Noroeste 0 -- -- 47
2020-09-06 19:00:00 24.1 13 Oeste 27 Oeste 0 -- -- 47
2020-09-06 18:00:00 24.1 13 Noroeste 31 Noroeste 0 -- -- 47
2020-09-06 17:00:00 25.2 14 Oeste 26 Oeste 0 -- -- 46
2020-09-06 16:00:00 24.6 14 Noroeste 28 Noroeste 0 -- -- 47
2020-09-06 15:00:00 25.6 13 Noroeste 28 Oeste 0 -- -- 49
2020-09-06 14:00:00 25.3 10 Oeste 27 Oeste 0 -- -- 51
2020-09-06 13:00:00 23.1 10 Noroeste 29 Oeste 0 -- -- 53
2020-09-06 12:00:00 21.5 11 Oeste 28 Oeste 0 -- -- 59
2020-09-06 11:00:00 20.9 16 Oeste 32 Oeste 0 -- -- 62
2020-09-06 10:00:00 19 17 Oeste 31 Oeste 0 -- -- 68
2020-09-06 09:00:00 17.6 8 Sudoeste 17 Sudoeste 0 -- -- 76
2020-09-06 08:00:00 15 3 Oeste 9 Sudoeste 0 -- -- 86
2020-09-06 07:00:00 15.2 3 Sudoeste 8 Sur 0 -- -- 84
2020-09-06 06:00:00 16.2 3 Sudoeste 12 Sudoeste 0 -- -- 81
2020-09-06 05:00:00 17 3 Sudoeste 13 Sudoeste 0 -- -- 77
2020-09-06 04:00:00 17.5 7 Sudoeste 13 Oeste 0 -- -- 76
2020-09-06 03:00:00 18 6 Sudoeste 19 Oeste 0 -- -- 74
2020-09-06 02:00:00 18.5 10 Oeste 22 Oeste 0 -- -- 71
2020-09-06 01:00:00 20 12 Oeste 26 Oeste 0 -- -- 65
2020-09-06 00:00:00 20.9 10 Oeste 21 Oeste 0 -- -- 61
2020-09-05 23:00:00 22.4 7 Oeste 23 Noroeste 0 -- -- 55
2020-09-05 22:00:00 24.8 13 Noroeste 24 Oeste 0 -- -- 48
2020-09-05 21:00:00 26.1 3 Norte 8 Noroeste 0 -- -- 42
2020-09-05 20:00:00 29.1 3 Este 10 Norte 0 -- -- 38
2020-09-05 19:00:00 30.4 4 Norte 13 Norte 0 -- -- 35
2020-09-05 18:00:00 31 4 Nordeste 13 Norte 0 -- -- 33
2020-09-05 17:00:00 30.9 3 Noroeste 16 Noroeste 0 -- -- 35
2020-09-05 16:00:00 31.1 4 Noroeste 15 Norte 0 -- -- 38
2020-09-05 15:00:00 29.3 0 Calma 19 Oeste 0 -- -- 39
2020-09-05 14:00:00 28.5 4 Oeste 17 Noroeste 0 -- -- 46
2020-09-05 13:00:00 26.4 4 Norte 14 Noroeste 0 -- -- 50
2020-09-05 12:00:00 24.5 6 Oeste 12 Sudoeste 0 -- -- 57
2020-09-05 11:00:00 22.1 3 Sudoeste 11 Sudoeste 0 -- -- 67
2020-09-05 10:00:00 19.9 0 Calma 7 Sudoeste 0 -- -- 76
2020-09-05 09:00:00 16.4 0 Calma 3 Sudoeste 0 -- -- 79
2020-09-05 08:00:00 13.6 0 Calma 5 Sudoeste 0 -- -- 93
2020-09-05 07:00:00 13 0 Calma 5 Sur 0 -- -- 91
2020-09-05 06:00:00 13.5 0 Calma 6 Sudoeste 0 -- -- 90
2020-09-05 05:00:00 14.5 0 Calma 5 Oeste 0 -- -- 88
2020-09-05 04:00:00 15 0 Calma 6 Este 0 -- -- 85
2020-09-05 03:00:00 16.5 0 Calma 6 Este 0 -- -- 80
2020-09-05 02:00:00 17.6 3 Este 5 Este 0 -- -- 76
2020-09-05 01:00:00 18.9 0 Calma 6 Noroeste 0 -- -- 71
2020-09-05 00:00:00 20.1 0 Calma 4 Sudoeste 0 -- -- 68
2020-09-04 23:00:00 21.8 2 Sur 6 Sudeste 0 -- -- 60
2020-09-04 22:00:00 24.4 3 Sudeste 22 Sudeste 0 -- -- 55
2020-09-04 21:00:00 24.9 5 Este 19 Este 0 -- -- 55
2020-09-04 20:00:00 27.1 14 Este 26 Este 0 -- -- 49
2020-09-04 19:00:00 28.9 14 Este 28 Nordeste 0 -- -- 44
2020-09-04 18:00:00 30.1 12 Nordeste 25 Nordeste 0 -- -- 38
2020-09-04 17:00:00 30.5 11 Nordeste 28 Nordeste 0 -- -- 33
2020-09-04 16:00:00 30.2 8 Nordeste 23 Norte 0 -- -- 32
2020-09-04 15:00:00 29.3 8 Norte 17 Nordeste 0 -- -- 35
2020-09-04 14:00:00 28.4 6 Este 16 Este 0 -- -- 39
2020-09-04 13:00:00 27.3 7 Este 15 Nordeste 0 -- -- 43
2020-09-04 12:00:00 26 2 Este -- -- -- -- -- 47
2020-09-04 11:00:00 22.2 2 Oeste 10 Oeste 0 -- -- 63
2020-09-04 10:00:00 19.6 3 Oeste 12 Oeste 0 -- -- 74
2020-09-04 09:00:00 15.8 0 Calma 6 Nordeste 0 -- -- 83
2020-09-04 08:00:00 12.6 0 Calma 3 Oeste 0 -- -- 94
2020-09-04 07:00:00 12.6 0 Calma 6 Oeste 0 -- -- 95
2020-09-04 06:00:00 13.2 4 Oeste 7 Sudoeste 0 -- -- 95
2020-09-04 05:00:00 14.4 0 Calma 4 Este 0 -- -- 91
2020-09-04 04:00:00 15.9 0 Calma 5 Norte 0 -- -- 90
2020-09-04 03:00:00 16.1 0 Calma -- -- 0 -- -- 87
2020-09-04 02:00:00 17.4 0 Calma 4 Nordeste 0 -- -- 83
2020-09-04 01:00:00 18.6 0 Calma 2 Nordeste 0 -- -- 77
2020-09-04 00:00:00 20.5 3 Nordeste 5 Nordeste 0 -- -- 71
2020-09-03 23:00:00 22.5 3 Sudeste 13 Sur 0 -- -- 66
2020-09-03 22:00:00 24 6 Sur 17 Sudeste 0 -- -- 63
2020-09-03 21:00:00 25.4 5 Este 21 Este 0 -- -- 58
2020-09-03 20:00:00 27.9 8 Nordeste 15 Nordeste 0 -- -- 30
2020-09-03 19:00:00 29 8 Nordeste 19 Este 0 -- -- 30
2020-09-03 18:00:00 29.9 7 Nordeste 24 Nordeste 0 -- -- 30
2020-09-03 17:00:00 30.1 4 Noroeste 12 Oeste 0 -- -- 30
2020-09-03 16:00:00 29.3 4 Norte 13 Nordeste 0 -- -- 33
2020-09-03 15:00:00 27.8 6 Este 18 Este 0 -- -- 37
2020-09-03 14:00:00 27.3 4 Nordeste 13 Noroeste 0 -- -- 39
2020-09-03 13:00:00 25.7 4 Este 14 Nordeste 0 -- -- 41
2020-09-03 12:00:00 23.1 0 Calma 11 Noroeste 0 -- -- 46
2020-09-03 11:00:00 20.8 3 Sudoeste 11 Sudoeste 0 -- -- 52
2020-09-03 10:00:00 18.1 4 Sur 8 Sur 0 -- -- 64
2020-09-03 09:00:00 13.6 3 Sudoeste 6 Sudoeste 0 -- -- 77
2020-09-03 08:00:00 10.1 0 Calma -- -- 0 -- -- 87
2020-09-03 07:00:00 10 0 Calma -- -- 0 -- -- 82
2020-09-03 06:00:00 10.7 0 Calma 5 Oeste 0 -- -- 79
2020-09-03 05:00:00 11.6 0 Calma 8 Sudoeste 0 -- -- 72
2020-09-03 04:00:00 11.8 2 Oeste 6 Sudoeste 0 -- -- 69
2020-09-03 03:00:00 12.3 0 Calma -- -- 0 -- -- 66
2020-09-03 02:00:00 13.1 0 Calma 10 Sudoeste 0 -- -- 63
2020-09-03 01:00:00 13.8 4 Oeste 7 Sudoeste 0 -- -- 61
2020-09-03 00:00:00 14.7 0 Calma 5 Sudoeste 0 -- -- 59
2020-09-02 23:00:00 16.4 0 Calma 6 Sudoeste 0 -- -- 55
2020-09-02 22:00:00 18.3 3 Sudoeste 5 Sudoeste 0 -- -- 48
2020-09-02 21:00:00 21 4 Noroeste 9 Norte 0 -- -- 40
2020-09-02 20:00:00 24.7 6 Norte 13 Noroeste 0 -- -- 36
2020-09-02 19:00:00 26.2 3 Norte 18 Oeste 0 -- -- 36
2020-09-02 18:00:00 26.8 5 Norte 26 Norte 0 -- -- 36
2020-09-02 17:00:00 26.6 12 Noroeste 27 Oeste 0 -- -- 36
2020-09-02 16:00:00 25.9 13 Noroeste 26 Oeste 0 -- -- 39
2020-09-02 15:00:00 25.7 10 Noroeste 28 Noroeste 0 -- -- 41
2020-09-02 14:00:00 24.8 10 Noroeste 32 Noroeste 0 -- -- 43
2020-09-02 13:00:00 22.5 11 Noroeste 26 Noroeste 0 -- -- 47
2020-09-02 12:00:00 21 12 Oeste 28 Sudoeste 0 -- -- 52
2020-09-02 11:00:00 19.8 11 Oeste 28 Oeste 0 -- -- 57
2020-09-02 10:00:00 18.3 12 Oeste 26 Oeste 0 -- -- 63
2020-09-02 09:00:00 15.4 4 Sur 7 Sudoeste 0 -- -- 76
2020-09-02 08:00:00 11.5 2 Sudoeste 7 Sudoeste 0 -- -- 83
2020-09-02 07:00:00 11.8 0 Calma 9 Sudoeste 0 -- -- 80
2020-09-02 06:00:00 12 0 Calma 6 Sudoeste 0 -- -- 79
2020-09-02 05:00:00 13.5 0 Calma 6 Sudoeste 0 -- -- 74
2020-09-02 04:00:00 14.7 0 Calma 13 Sudoeste 0 -- -- 68
2020-09-02 03:00:00 15.8 3 Sudoeste 14 Oeste 0 -- -- 62
2020-09-02 02:00:00 17.5 10 Oeste 21 Oeste 0 -- -- 56
2020-09-02 01:00:00 16.1 2 Noroeste 12 Oeste 0 -- -- 60
2020-09-02 00:00:00 16.5 5 Sudoeste 8 Sudoeste 0 -- -- 58
2020-09-01 23:00:00 16.3 4 Oeste 8 Sudoeste 0 -- -- 57
2020-09-01 22:00:00 17.6 0 Calma 6 Sur 0 -- -- 50
2020-09-01 21:00:00 20.8 0 Calma 4 Sudoeste 0 -- -- 43
2020-09-01 20:00:00 23.2 3 Sudoeste 6 Oeste 0 -- -- 38
2020-09-01 19:00:00 23.9 3 Nordeste 14 Noroeste 0 -- -- 36
2020-09-01 18:00:00 23.7 7 Noroeste 17 Noroeste 0 -- -- 36
2020-09-01 17:00:00 23.8 9 Noroeste 14 Norte 0 -- -- 36
2020-09-01 16:00:00 24.4 5 Nordeste 15 Este 0 -- -- 36
2020-09-01 15:00:00 24.6 0 Calma 15 Noroeste 0 -- -- 36
2020-09-01 14:00:00 24.1 5 Norte 13 Noroeste 0 -- -- 38
2020-09-01 13:00:00 22.5 6 Norte 14 Norte 0 -- -- 41
2020-09-01 12:00:00 22.9 4 Sur 9 Sudoeste 0 -- -- 44
2020-09-01 11:00:00 19.3 0 Calma 4 Sur 0 -- -- 59
2020-09-01 10:00:00 16.6 3 Noroeste 9 Sudoeste 0 -- -- 71
2020-09-01 09:00:00 14.2 2 Sudeste 6 Sur 0 -- -- 77
2020-09-01 08:00:00 12.1 0 Calma 5 Oeste 0 -- -- 81
2020-09-01 07:00:00 11.6 0 Calma 5 Oeste 0 -- -- 79
2020-09-01 06:00:00 11.6 2 Sudoeste 5 Sudoeste 0 -- -- 76
2020-09-01 05:00:00 12 0 Calma 4 Oeste 0 -- -- 73
2020-09-01 04:00:00 13.3 0 Calma 7 Sur 0 -- -- 67
2020-09-01 03:00:00 14.4 0 Calma 5 Oeste 0 -- -- 62
2020-09-01 02:00:00 14.3 0 Calma 3 Oeste 0 -- -- 61
2020-09-01 01:00:00 14.9 0 Calma 6 Oeste 0 -- -- 58
2020-09-01 00:00:00 16.6 0 Calma 7 Oeste 0 -- -- 54
2020-08-31 23:00:00 17 4 Oeste 6 Oeste 0 -- -- 50
2020-08-31 22:00:00 17.8 0 Calma 5 Sur 0 -- -- 46
2020-08-31 21:00:00 19.3 0 Calma 8 Norte 0 -- -- 40
2020-08-31 20:00:00 22.8 4 Norte 15 Nordeste 0 -- -- 36
2020-08-31 19:00:00 24.3 9 Norte 19 Norte 0 -- -- 35
2020-08-31 18:00:00 25 4 Norte 16 Noroeste 0 -- -- 34
2020-08-31 17:00:00 24.8 4 Nordeste 16 Noroeste 0 -- -- 35
2020-08-31 16:00:00 23.6 4 Norte 17 Sudoeste 0 -- -- 37
2020-08-31 15:00:00 23.4 5 Noroeste 15 Sudoeste 0 -- -- 40
2020-08-31 14:00:00 22.5 5 Noroeste 21 Noroeste 0 -- -- 43
2020-08-31 13:00:00 20.4 6 Oeste 20 Noroeste 0 -- -- 47
2020-08-31 12:00:00 19.6 9 Oeste 27 Sudoeste 0 -- -- 51
2020-08-31 11:00:00 17.8 10 Noroeste 23 Noroeste 0 -- -- 57
2020-08-31 10:00:00 16.4 11 Oeste 24 Oeste 0 -- -- 63
2020-08-31 09:00:00 13.8 6 Sur 14 Sur 0 -- -- 71
2020-08-31 08:00:00 11.2 6 Sur 12 Sur 0 -- -- 77
2020-08-31 07:00:00 10.3 0 Calma 10 Sudoeste 0 -- -- 78
2020-08-31 06:00:00 11.4 4 Oeste 10 Sudoeste 0 -- -- 76
2020-08-31 05:00:00 12.3 4 Sudoeste 12 Sur 0 -- -- 73
2020-08-31 04:00:00 12.2 3 Sur 8 Sudoeste 0 -- -- 72
2020-08-31 03:00:00 12.3 2 Sudoeste 12 Sudoeste 0 -- -- 71
2020-08-31 02:00:00 13.9 6 Sur 15 Sur 0 -- -- 65
2020-08-31 01:00:00 14 5 Sur 26 Oeste 0 -- -- 63
2020-08-31 00:00:00 15.2 6 Oeste 25 Oeste 0 -- -- 60
2020-08-30 23:00:00 16.3 12 Oeste 30 Noroeste 0 -- -- 57
2020-08-30 22:00:00 17.5 14 Oeste 31 Oeste 0 -- -- 52
2020-08-30 21:00:00 18.3 14 Oeste 34 Noroeste 0 -- -- 50
2020-08-30 20:00:00 19.8 17 Noroeste 37 Noroeste 0 -- -- 47
2020-08-30 19:00:00 20.8 21 Noroeste 38 Oeste 0 -- -- 46
2020-08-30 18:00:00 21.9 17 Noroeste 39 Oeste 0 -- -- 44
2020-08-30 17:00:00 22.5 17 Noroeste 34 Noroeste 0 -- -- 44
2020-08-30 16:00:00 21.4 15 Noroeste 37 Noroeste 0 -- -- 44
2020-08-30 15:00:00 22.4 16 Oeste 32 Oeste 0 -- -- 45
2020-08-30 14:00:00 20.2 18 Oeste 36 Noroeste 0 -- -- 49
2020-08-30 13:00:00 20.3 18 Noroeste 36 Noroeste 0 -- -- 50
2020-08-30 12:00:00 18.7 19 Oeste 40 Sudoeste 0 -- -- 52
2020-08-30 11:00:00 17.5 19 Oeste 40 Oeste 0 -- -- 58
2020-08-30 10:00:00 15.6 18 Oeste 40 Noroeste 0 -- -- 60
2020-08-30 09:00:00 14.4 18 Oeste 37 Oeste 0 -- -- 65
2020-08-30 08:00:00 12.7 18 Oeste 31 Oeste 0 -- -- 68
2020-08-30 07:00:00 12 7 Sudoeste 16 Sudoeste 0 -- -- 68
2020-08-30 06:00:00 12.9 7 Sudoeste 21 Oeste 0 -- -- 67
2020-08-30 05:00:00 13.1 13 Oeste 32 Oeste 0 -- -- 64
2020-08-30 04:00:00 13.7 16 Oeste 37 Oeste 0 -- -- 65
2020-08-30 03:00:00 13.8 15 Oeste 47 Oeste 0 -- -- 68
2020-08-30 02:00:00 14.4 16 Oeste 43 Oeste 0 -- -- 67
2020-08-30 01:00:00 15.2 17 Oeste 41 Oeste 0 -- -- 67
2020-08-30 00:00:00 16.3 18 Oeste 39 Noroeste 0 -- -- 64
2020-08-29 23:00:00 16.9 16 Oeste 36 Oeste 0 -- -- 61
2020-08-29 22:00:00 17.6 20 Noroeste 39 Oeste 0 -- -- 57
2020-08-29 21:00:00 18.5 18 Noroeste 43 Noroeste 0 -- -- 52
2020-08-29 20:00:00 20.6 23 Noroeste 48 Noroeste 0 -- -- 45
2020-08-29 19:00:00 22.9 23 Noroeste 44 Noroeste 0 -- -- 40
2020-08-29 18:00:00 23.9 18 Noroeste 44 Noroeste 0 -- -- 40
2020-08-29 17:00:00 23.7 22 Noroeste 40 Oeste 0 -- -- 40
2020-08-29 16:00:00 23.9 17 Oeste 40 Oeste 0 -- -- 42
2020-08-29 15:00:00 22.8 18 Noroeste 40 Noroeste 0 -- -- 43
2020-08-29 14:00:00 21.7 18 Oeste 38 Noroeste 0 -- -- 47
2020-08-29 13:00:00 19.9 16 Oeste 35 Oeste 0 -- -- 52
2020-08-29 12:00:00 18.8 17 Oeste 35 Noroeste 0 -- -- 57
2020-08-29 11:00:00 17.3 19 Noroeste 37 Noroeste 0 -- -- 60
2020-08-29 10:00:00 17.1 15 Oeste 42 Oeste 0 -- -- 62
2020-08-29 09:00:00 16.2 15 Oeste 36 Oeste 0 -- -- 63
2020-08-29 08:00:00 16.1 17 Oeste 31 Oeste 0 -- -- 63
2020-08-29 07:00:00 16.1 18 Oeste 37 Oeste 0 -- -- 62
2020-08-29 06:00:00 16.5 19 Oeste 33 Oeste 0 -- -- 63
2020-08-29 05:00:00 16.8 17 Oeste 32 Oeste 0 -- -- 63
2020-08-29 04:00:00 16.7 18 Oeste 35 Oeste 0 -- -- 64
2020-08-29 03:00:00 16.9 17 Oeste 34 Oeste 0 -- -- 64
2020-08-29 02:00:00 17.5 15 Oeste 35 Oeste 0 -- -- 64
2020-08-29 01:00:00 17.4 18 Oeste 44 Oeste 0 -- -- 67
2020-08-29 00:00:00 17.7 14 Oeste 36 Oeste 0 -- -- 67
2020-08-28 23:00:00 18.8 15 Oeste 31 Oeste 0 -- -- 64
2020-08-28 22:00:00 20 14 Oeste 38 Oeste 0 -- -- 63
2020-08-28 21:00:00 21.1 15 Noroeste 38 Noroeste 0 -- -- 60
2020-08-28 20:00:00 23.9 13 Oeste 24 Oeste 0 -- -- 60
2020-08-28 19:00:00 23.7 3 Oeste 26 Sur 0.1 -- -- 82
2020-08-28 18:00:00 26.4 6 Oeste 22 Noroeste 0.1 -- -- 59
2020-08-28 17:00:00 28.7 10 Noroeste 25 Noroeste 0 -- -- 50
2020-08-28 16:00:00 30 6 Norte 24 Noroeste 0 -- -- 48
2020-08-28 15:00:00 30.1 5 Noroeste 17 Oeste 0 -- -- 49
2020-08-28 14:00:00 28.2 10 Oeste 24 Oeste 0 -- -- 52
2020-08-28 13:00:00 27.9 4 Oeste 15 Sudoeste 0 -- -- 56
2020-08-28 12:00:00 25.6 6 Oeste 17 Noroeste 0 -- -- 59
2020-08-28 11:00:00 24.1 8 Oeste 21 Oeste 0 -- -- 64
2020-08-28 10:00:00 22.6 11 Oeste 21 Oeste 0 -- -- 71
2020-08-28 09:00:00 20.9 0 Calma 6 Sudoeste 0 -- -- 83
2020-08-28 08:00:00 19 3 Sudoeste 6 Sudoeste 0 -- -- 89
2020-08-28 07:00:00 18.9 4 Oeste 8 Oeste 0 -- -- 87
2020-08-28 06:00:00 18.9 4 Sudoeste 11 Sudoeste 0 -- -- 86
2020-08-28 05:00:00 20.2 0 Calma 7 Sudoeste 0 -- -- 81
2020-08-28 04:00:00 21.6 5 Sudoeste 9 Sudoeste 0 -- -- 75
2020-08-28 03:00:00 22.8 2 Norte 22 Noroeste 0 -- -- 74
2020-08-28 02:00:00 23.5 5 Norte 13 Oeste 0 -- -- 79
2020-08-28 01:00:00 24.8 0 Calma 6 Sur 0 -- -- 73
2020-08-28 00:00:00 26.4 0 Calma 3 Sur 0 -- -- 69
2020-08-27 23:00:00 26.6 2 Sudeste 5 Sur 0 -- -- 66
2020-08-27 22:00:00 28.1 2 Este 9 Este 0 -- -- 61
2020-08-27 21:00:00 29.5 5 Este 11 Este 0 -- -- 48
2020-08-27 20:00:00 32.4 4 Nordeste 9 Este 0 -- -- 39
2020-08-27 19:00:00 33.4 6 Este 18 Este 0 -- -- 37
2020-08-27 18:00:00 34.5 5 Noroeste 16 Nordeste 0 -- -- 35
2020-08-27 17:00:00 34.8 3 Noroeste 17 Nordeste 0 -- -- 36
2020-08-27 16:00:00 34.3 3 Norte 14 Oeste 0 -- -- 37
2020-08-27 15:00:00 33.3 3 Norte 15 Noroeste 0 -- -- 37
2020-08-27 14:00:00 31.7 4 Norte 14 Oeste 0 -- -- 41
2020-08-27 13:00:00 29.2 4 Oeste 14 Oeste 0 -- -- 46
2020-08-27 12:00:00 28 8 Sudoeste 15 Sudoeste 0 -- -- 52
2020-08-27 11:00:00 25.9 7 Oeste 14 Oeste 0 -- -- 60
2020-08-27 10:00:00 24.1 2 Sur 5 Sur 0 -- -- 70
2020-08-27 09:00:00 21.3 0 Calma -- -- 0 -- -- 79
2020-08-27 08:00:00 18.9 0 Calma -- -- 0 -- -- 88
2020-08-27 07:00:00 18.5 0 Calma -- -- 0 -- -- 87
2020-08-27 06:00:00 19.2 0 Calma 0 Calma 0 -- -- 83
2020-08-27 05:00:00 20.1 0 Calma 5 Oeste 0 -- -- 83
2020-08-27 04:00:00 20.7 0 Calma 4 Oeste 0 -- -- 80
2020-08-27 03:00:00 22.3 0 Calma 6 Sudoeste 0 -- -- 77
2020-08-27 02:00:00 22.1 0 Calma 5 Sur 0 -- -- 77
2020-08-27 01:00:00 24 0 Calma 9 Sudoeste 0 -- -- 76
2020-08-27 00:00:00 25.2 0 Calma 6 Norte 0 -- -- 74
2020-08-26 23:00:00 27.2 5 Norte 8 Norte 0 -- -- 67
2020-08-26 22:00:00 28.4 4 Nordeste 14 Este 0 -- -- 63
2020-08-26 21:00:00 29.9 8 Este 15 Nordeste 0 -- -- 59
2020-08-26 20:00:00 32.7 6 Nordeste 10 Nordeste 0 -- -- 44
2020-08-26 19:00:00 34.3 4 Este 15 Nordeste 0 -- -- 40
2020-08-26 18:00:00 34.5 6 Nordeste 18 Este 0 -- -- 39
2020-08-26 17:00:00 34.6 5 Este 17 Oeste 0 -- -- 39
2020-08-26 16:00:00 33.7 3 Nordeste 18 Norte 0 -- -- 39
2020-08-26 15:00:00 33 4 Norte 15 Nordeste 0 -- -- 41
2020-08-26 14:00:00 30.9 5 Nordeste 16 Nordeste 0 -- -- 43
2020-08-26 13:00:00 30.2 3 Este 13 Oeste 0 -- -- 45
2020-08-26 12:00:00 27.9 4 Noroeste 13 Noroeste 0 -- -- 49
2020-08-26 11:00:00 25.6 5 Norte 16 Noroeste 0 -- -- 53
2020-08-26 10:00:00 24.9 3 Este 7 Este 0 -- -- 58
2020-08-26 09:00:00 20.7 0 Calma 6 Sudoeste 0 -- -- 71
2020-08-26 08:00:00 18 0 Calma 5 Sudoeste 0 -- -- 79
2020-08-26 07:00:00 17.7 0 Calma 6 Oeste 0 -- -- 79
2020-08-26 06:00:00 18.9 0 Calma 4 Sudoeste 0 -- -- 72
2020-08-26 05:00:00 19.5 0 Calma 3 Sur 0 -- -- 71
2020-08-26 04:00:00 21.6 3 Sudoeste 16 Oeste 0 -- -- 63
2020-08-26 03:00:00 23 9 Oeste 14 Oeste 0 -- -- 61
2020-08-26 02:00:00 23.2 0 Calma -- -- 0 -- -- 56
2020-08-26 01:00:00 25.3 0 Calma 4 Sur 0 -- -- 52
2020-08-26 00:00:00 26 0 Calma 8 Sudeste 0 -- -- 50
2020-08-25 23:00:00 27.4 2 Sudeste 9 Sudeste 0 -- -- 48
2020-08-25 22:00:00 28.7 0 Calma 11 Sudeste 0 -- -- 48
2020-08-25 21:00:00 31.6 5 Sudeste 19 Este 0 -- -- 44
2020-08-25 20:00:00 33.2 5 Nordeste 13 Este 0 -- -- 33
2020-08-25 19:00:00 34.3 9 Este 20 Este 0 -- -- 32
2020-08-25 18:00:00 34.8 7 Este 22 Este 0 -- -- 31
2020-08-25 17:00:00 34.7 7 Este 24 Noroeste 0 -- -- 34
2020-08-25 16:00:00 34 8 Nordeste 22 Norte 0 -- -- 35
2020-08-25 15:00:00 32.8 7 Norte 17 Norte 0 -- -- 41
2020-08-25 14:00:00 31.9 5 Nordeste 23 Nordeste 0 -- -- 46
2020-08-25 13:00:00 30.3 8 Este 17 Este 0 -- -- 48
2020-08-25 12:00:00 29.7 2 Sudoeste 11 Norte 0 -- -- 49
2020-08-25 11:00:00 26.6 2 Oeste 9 Oeste 0 -- -- 51
2020-08-25 10:00:00 23.5 0 Calma 6 Sudoeste 0 -- -- 63
2020-08-25 09:00:00 20.6 0 Calma 6 Sudoeste 0 -- -- 78
2020-08-25 08:00:00 17.4 0 Calma 4 Noroeste 0 -- -- 86
2020-08-25 07:00:00 17.5 0 Calma 4 Sudeste 0 -- -- 86
2020-08-25 06:00:00 17.4 0 Calma 6 Oeste 0 -- -- 86
2020-08-25 05:00:00 18.6 0 Calma -- -- 0 -- -- 82
2020-08-25 04:00:00 18.5 0 Calma 0 Calma 0 -- -- 79
2020-08-25 03:00:00 18.7 0 Calma 7 Oeste 0 -- -- 75
2020-08-25 02:00:00 19.8 3 Oeste 6 Sudoeste 0 -- -- 71
2020-08-25 01:00:00 21.1 0 Calma 7 Oeste 0 -- -- 66
2020-08-25 00:00:00 21.3 0 Calma 6 Oeste 0 -- -- 63
2020-08-24 23:00:00 22 4 Oeste 7 Oeste 0 -- -- 60
2020-08-24 22:00:00 24.1 0 Calma 4 Sur 0 -- -- 52
2020-08-24 21:00:00 26 0 Calma 4 Nordeste 0 -- -- 47
2020-08-24 20:00:00 29.5 0 Calma 13 Sudoeste 0 -- -- 43
2020-08-24 19:00:00 30.2 4 Oeste 19 Este 0 -- -- 41
2020-08-24 18:00:00 30.4 2 Nordeste 17 Norte 0 -- -- 40
2020-08-24 17:00:00 29.4 4 Norte 22 Noroeste 0 -- -- 42
2020-08-24 16:00:00 28.3 6 Norte 18 Noroeste 0 -- -- 42
2020-08-24 15:00:00 28.4 4 Este 20 Noroeste 0 -- -- 43
2020-08-24 14:00:00 26.5 4 Noroeste 17 Norte 0 -- -- 45
2020-08-24 13:00:00 24.1 8 Noroeste 21 Oeste 0 -- -- 50
2020-08-24 12:00:00 23.6 6 Oeste 23 Oeste 0 -- -- 54
2020-08-24 11:00:00 21.2 10 Oeste 24 Oeste 0 -- -- 59
2020-08-24 10:00:00 19.3 10 Oeste 25 Oeste 0 -- -- 64
2020-08-24 09:00:00 17.2 3 Sudoeste 5 Sudoeste 0 -- -- 71
2020-08-24 08:00:00 14 0 Calma -- -- 0 -- -- 79
2020-08-24 07:00:00 14.3 0 Calma 8 Oeste 0 -- -- 73
2020-08-24 06:00:00 15.3 4 Sudoeste 9 Oeste 0 -- -- 68
2020-08-24 05:00:00 16.3 0 Calma 9 Sudoeste 0 -- -- 65
2020-08-24 04:00:00 17.1 0 Calma 12 Oeste 0 -- -- 64
2020-08-24 03:00:00 18.5 6 Sudoeste 11 Sudoeste 0 -- -- 61
2020-08-24 02:00:00 20.2 6 Sudoeste 19 Sudoeste 0 -- -- 58
2020-08-24 01:00:00 21.1 12 Oeste 23 Oeste 0 -- -- 55
2020-08-24 00:00:00 22.1 10 Oeste 27 Noroeste 0 -- -- 49
2020-08-23 23:00:00 23 14 Oeste 25 Noroeste 0 -- -- 45
2020-08-23 22:00:00 24.1 11 Noroeste 22 Noroeste 0 -- -- 40
2020-08-23 21:00:00 25.5 8 Noroeste 17 Oeste 0 -- -- 36
2020-08-23 20:00:00 28.4 11 Noroeste 20 Noroeste 0 -- -- 34
2020-08-23 19:00:00 29.7 9 Noroeste 23 Oeste 0 -- -- 33
2020-08-23 18:00:00 29.7 12 Oeste 24 Noroeste 0 -- -- 37
2020-08-23 17:00:00 30.3 6 Oeste 22 Noroeste 0 -- -- 38
2020-08-23 16:00:00 29.9 8 Noroeste 22 Oeste 0 -- -- 41
2020-08-23 15:00:00 28.7 6 Noroeste 24 Noroeste 0 -- -- 46
2020-08-23 14:00:00 27 8 Oeste 24 Noroeste 0 -- -- 49
2020-08-23 13:00:00 25.9 8 Oeste 26 Oeste 0 -- -- 52
2020-08-23 12:00:00 24.6 10 Oeste 20 Oeste 0 -- -- 56
2020-08-23 11:00:00 23 6 Oeste 21 Oeste 0 -- -- 60
2020-08-23 10:00:00 20.9 14 Oeste 28 Oeste 0 -- -- 63
2020-08-23 09:00:00 20 13 Oeste 23 Sudoeste 0 -- -- 67
2020-08-23 08:00:00 18.4 5 Sudoeste 13 Sur 0 -- -- 74
2020-08-23 07:00:00 18.3 6 Sudoeste 16 Oeste 0 -- -- 72
2020-08-23 06:00:00 18.7 5 Sudoeste 19 Oeste 0 -- -- 71
2020-08-23 05:00:00 19.1 5 Sudoeste 19 Sudoeste 0 -- -- 68
2020-08-23 04:00:00 19.4 6 Oeste 12 Oeste 0 -- -- 61
2020-08-23 03:00:00 21.1 4 Oeste 18 Oeste 0 -- -- 56
2020-08-23 02:00:00 21.9 6 Sudoeste 13 Sudoeste 0 -- -- 54
2020-08-23 01:00:00 23.2 6 Oeste 22 Noroeste 0 -- -- 50
2020-08-23 00:00:00 24.3 10 Noroeste 23 Noroeste 0 -- -- 48
2020-08-22 23:00:00 25.7 12 Noroeste 22 Oeste 0 -- -- 46
2020-08-22 22:00:00 26.9 8 Noroeste 14 Noroeste 0 -- -- 44
2020-08-22 21:00:00 28.1 6 Noroeste 11 Noroeste 0 -- -- 43
2020-08-22 20:00:00 30.7 6 Noroeste 16 Noroeste 0 -- -- 39
2020-08-22 19:00:00 31.9 6 Noroeste 17 Noroeste 0 -- -- 38
2020-08-22 18:00:00 31.9 6 Noroeste 19 Noroeste 0 -- -- 38
2020-08-22 17:00:00 32.5 10 Oeste 25 Noroeste 0 -- -- 39
2020-08-22 16:00:00 31.2 6 Norte 21 Norte 0 -- -- 41
2020-08-22 15:00:00 30.5 6 Norte 20 Norte 0 -- -- 43
2020-08-22 14:00:00 30.1 5 Noroeste 19 Norte 0 -- -- 45
2020-08-22 13:00:00 28.2 7 Oeste 20 Noroeste 0 -- -- 50
2020-08-22 12:00:00 26.1 11 Noroeste 24 Noroeste 0 -- -- 57
2020-08-22 11:00:00 25.1 14 Oeste 26 Oeste 0 -- -- 64
2020-08-22 10:00:00 23.6 12 Oeste 24 Noroeste 0 -- -- 67
2020-08-22 09:00:00 22.1 8 Oeste 19 Oeste 0 -- -- 71
2020-08-22 08:00:00 20.4 3 Sudoeste 10 Oeste 0 -- -- 77
2020-08-22 07:00:00 20.5 3 Sudoeste 15 Sudoeste 0 -- -- 75
2020-08-22 06:00:00 21 8 Oeste 19 Oeste 0 -- -- 73
2020-08-22 05:00:00 21.8 8 Oeste 15 Sudoeste 0 -- -- 74
2020-08-22 04:00:00 21.9 5 Sudoeste 18 Sudoeste 0 -- -- 73
2020-08-22 03:00:00 22.5 8 Sudoeste 21 Sudoeste 0 -- -- 71
2020-08-22 02:00:00 23.9 12 Oeste 31 Oeste 0 -- -- 66
2020-08-22 01:00:00 24.9 9 Oeste 39 Oeste 0 -- -- 64
2020-08-22 00:00:00 26.2 16 Oeste 29 Oeste 0 -- -- 61
2020-08-21 23:00:00 28.4 5 Sur 10 Sur 0 -- -- 58
2020-08-21 22:00:00 30.5 4 Sudeste 12 Sudeste 0 -- -- 47
2020-08-21 21:00:00 32.1 6 Sudeste 25 Este 0 -- -- 43
2020-08-21 20:00:00 33.6 16 Este 29 Este 0 -- -- 40
2020-08-21 19:00:00 35.7 4 Nordeste 16 Este 0 -- -- 27
2020-08-21 18:00:00 35.9 8 Nordeste 15 Este 0 -- -- 27
2020-08-21 17:00:00 35.7 6 Nordeste 17 Este 0 -- -- 26
2020-08-21 16:00:00 35.5 9 Nordeste 24 Este 0 -- -- 28
2020-08-21 15:00:00 34.6 13 Este 22 Este 0 -- -- 31
2020-08-21 14:00:00 33.7 11 Este 25 Este 0 -- -- 37
2020-08-21 13:00:00 32.8 6 Nordeste 16 Nordeste 0 -- -- 37
2020-08-21 12:00:00 30.4 3 Norte 10 Noroeste 0 -- -- 43
2020-08-21 11:00:00 27.3 2 Noroeste 10 Oeste 0 -- -- 53
2020-08-21 10:00:00 24 3 Oeste 9 Oeste 0 -- -- 63
2020-08-21 09:00:00 20.2 0 Calma 6 Este 0 -- -- 67
2020-08-21 08:00:00 17.7 0 Calma 8 Oeste 0 -- -- 71
2020-08-21 07:00:00 17.4 2 Norte 5 Norte 0 -- -- 74
2020-08-21 06:00:00 18.5 0 Calma 3 Oeste 0 -- -- 74
2020-08-21 05:00:00 19 0 Calma 4 Este 0 -- -- 73
2020-08-21 04:00:00 20.2 0 Calma 8 Este 0 -- -- 67
2020-08-21 03:00:00 22.4 6 Este 13 Nordeste 0 -- -- 64
2020-08-21 02:00:00 24.2 5 Norte 15 Sur 0 -- -- 40
2020-08-21 01:00:00 26.6 3 Este 15 Nordeste 0 -- -- 37
2020-08-21 00:00:00 28 7 Sur 15 Sudeste 0 -- -- 36
2020-08-20 23:00:00 27.8 5 Nordeste 14 Norte 0 -- -- 36
2020-08-20 22:00:00 28.2 5 Sudeste 27 Sur 0 -- -- 36
2020-08-20 21:00:00 29.6 12 Sudeste 29 Sudeste 0 -- -- 37
2020-08-20 20:00:00 30.9 11 Sudeste 38 Sudeste 0 -- -- 36
2020-08-20 19:00:00 33.4 13 Sudeste 38 Sudeste 0 -- -- 31
2020-08-20 18:00:00 34.4 13 Sudeste 35 Sudeste 0 -- -- 31
2020-08-20 17:00:00 35.4 13 Sudeste 36 Sur 0 -- -- 33
2020-08-20 16:00:00 36.2 12 Sudeste 30 Este 0 -- -- 34
2020-08-20 15:00:00 36 14 Norte 29 Nordeste 0 -- -- 35
2020-08-20 14:00:00 34.8 11 Norte 25 Norte 0 -- -- 36
2020-08-20 13:00:00 32.8 10 Nordeste 20 Este 0 -- -- 39
2020-08-20 12:00:00 30.8 7 Nordeste 13 Este 0 -- -- 39
2020-08-20 11:00:00 28.9 0 Calma 8 Sudoeste 0 -- -- 45
2020-08-20 10:00:00 24.8 3 Sudoeste 8 Sudoeste 0 -- -- 62
2020-08-20 09:00:00 21.5 0 Calma 7 Oeste 0 -- -- 67
2020-08-20 08:00:00 18 0 Calma 3 Sur 0 -- -- 72
2020-08-20 07:00:00 18.2 0 Calma 6 Norte 0 -- -- 69
2020-08-20 06:00:00 19.5 0 Calma 5 Noroeste 0 -- -- 64
2020-08-20 05:00:00 20.9 0 Calma 10 Oeste 0 -- -- 55
2020-08-20 04:00:00 22.8 0 Calma 12 Noroeste 0 -- -- 46
2020-08-20 03:00:00 24.4 3 Oeste 18 Oeste 0 -- -- 40
2020-08-20 02:00:00 27.2 7 Sudoeste 22 Sur 0 -- -- 39
2020-08-20 01:00:00 27 5 Sudoeste 15 Sudoeste 0 -- -- 40
2020-08-20 00:00:00 27.4 4 Sur 14 Sudeste 0 -- -- 42
2020-08-19 23:00:00 27.8 6 Sur 17 Sudoeste 0 -- -- 42
2020-08-19 22:00:00 27.3 2 Este 17 Este 0 -- -- 44
2020-08-19 21:00:00 29.9 7 Este 18 Sudeste 0 -- -- 41
2020-08-19 20:00:00 31.9 7 Sudeste 30 Este 0 -- -- 39
2020-08-19 19:00:00 32.6 15 Este 36 Este 0 -- -- 39
2020-08-19 18:00:00 33.5 17 Este 34 Este 0 -- -- 38
2020-08-19 17:00:00 34.3 18 Este 31 Este 0 -- -- 36
2020-08-19 16:00:00 34.6 14 Este 31 Nordeste 0 -- -- 35
2020-08-19 15:00:00 34.1 8 Nordeste 22 Nordeste 0 -- -- 34
2020-08-19 14:00:00 33.6 10 Este 19 Este 0 -- -- 35
2020-08-19 13:00:00 32.7 6 Nordeste 15 Nordeste 0 -- -- 37
2020-08-19 12:00:00 31 3 Este 11 Sudeste 0 -- -- 41
2020-08-19 11:00:00 29 0 Calma 8 Este 0 -- -- 46
2020-08-19 10:00:00 25.3 3 Este 7 Sur 0 -- -- 58
2020-08-19 09:00:00 21.2 2 Sudeste 6 Este 0 -- -- 69
2020-08-19 08:00:00 18.3 0 Calma 5 Sudoeste 0 -- -- 83
2020-08-19 07:00:00 17.4 0 Calma 5 Oeste 0 -- -- 82
2020-08-19 06:00:00 18 2 Oeste 5 Sudoeste 0 -- -- 79
2020-08-19 05:00:00 18.2 0 Calma -- -- 0 -- -- 76
2020-08-19 04:00:00 18.7 0 Calma 5 Oeste 0 -- -- 73
2020-08-19 03:00:00 19.3 4 Oeste 7 Oeste 0 -- -- 71
2020-08-19 02:00:00 19.9 0 Calma 5 Oeste 0 -- -- 68
2020-08-19 01:00:00 21.1 0 Calma 6 Sur 0 -- -- 63
2020-08-19 00:00:00 22 0 Calma 5 Sur 0 -- -- 60